sensor_id;sensor_type;location;lat;lon;timestamp;temperature;humidity
44573;DHT22;31762;45.420;10.072;2022-09-09T00:05:13;23.50;99.90
44573;DHT22;31762;45.420;10.072;2022-09-09T00:10:39;23.40;99.90
44573;DHT22;31762;45.420;10.072;2022-09-09T00:21:13;22.90;99.90
44573;DHT22;31762;45.420;10.072;2022-09-09T00:26:51;23.00;99.90
44573;DHT22;31762;45.420;10.072;2022-09-09T00:31:43;22.90;99.90
44573;DHT22;31762;45.420;10.072;2022-09-09T00:36:45;22.90;99.90
44573;DHT22;31762;45.420;10.072;2022-09-09T00:57:42;22.80;99.90
44573;DHT22;31762;45.420;10.072;2022-09-09T01:07:55;23.10;99.90
44573;DHT22;31762;45.420;10.072;2022-09-09T01:13:00;22.90;99.90
44573;DHT22;31762;45.420;10.072;2022-09-09T01:18:10;23.20;99.90
44573;DHT22;31762;45.420;10.072;2022-09-09T01:28:50;22.80;99.90
44573;DHT22;31762;45.420;10.072;2022-09-09T01:33:52;22.50;99.90
44573;DHT22;31762;45.420;10.072;2022-09-09T01:38:54;22.60;99.90
44573;DHT22;31762;45.420;10.072;2022-09-09T01:43:56;23.00;99.90
44573;DHT22;31762;45.420;10.072;2022-09-09T01:49:00;23.20;99.90
44573;DHT22;31762;45.420;10.072;2022-09-09T01:54:03;22.50;99.90
44573;DHT22;31762;45.420;10.072;2022-09-09T01:59:27;22.70;99.90
44573;DHT22;31762;45.420;10.072;2022-09-09T02:04:43;22.40;99.90
44573;DHT22;31762;45.420;10.072;2022-09-09T02:09:50;22.40;99.90
44573;DHT22;31762;45.420;10.072;2022-09-09T02:14:58;22.60;99.90
44573;DHT22;31762;45.420;10.072;2022-09-09T02:20:11;22.80;99.90
44573;DHT22;31762;45.420;10.072;2022-09-09T02:25:15;22.60;99.90
44573;DHT22;31762;45.420;10.072;2022-09-09T02:30:19;22.90;99.90
44573;DHT22;31762;45.420;10.072;2022-09-09T02:35:23;23.40;99.90
44573;DHT22;31762;45.420;10.072;2022-09-09T02:40:26;23.50;99.90
44573;DHT22;31762;45.420;10.072;2022-09-09T02:45:34;23.30;99.90
44573;DHT22;31762;45.420;10.072;2022-09-09T02:50:54;23.50;99.90
44573;DHT22;31762;45.420;10.072;2022-09-09T02:56:09;23.40;99.90
44573;DHT22;31762;45.420;10.072;2022-09-09T03:01:12;23.30;99.90
44573;DHT22;31762;45.420;10.072;2022-09-09T03:06:14;23.20;99.90
44573;DHT22;31762;45.420;10.072;2022-09-09T03:11:16;23.20;99.90
44573;DHT22;31762;45.420;10.072;2022-09-09T03:16:18;23.00;99.90
44573;DHT22;31762;45.420;10.072;2022-09-09T03:21:20;23.00;99.90
44573;DHT22;31762;45.420;10.072;2022-09-09T03:26:21;22.90;99.90
44573;DHT22;31762;45.420;10.072;2022-09-09T03:31:23;23.10;99.90
44573;DHT22;31762;45.420;10.072;2022-09-09T03:36:26;23.10;99.90
44573;DHT22;31762;45.420;10.072;2022-09-09T03:41:28;22.50;99.90
44573;DHT22;31762;45.420;10.072;2022-09-09T03:46:30;22.80;99.90
44573;DHT22;31762;45.420;10.072;2022-09-09T03:51:31;22.90;99.90
44573;DHT22;31762;45.420;10.072;2022-09-09T03:56:34;22.80;99.90
44573;DHT22;31762;45.420;10.072;2022-09-09T04:01:35;22.70;99.90
44573;DHT22;31762;45.420;10.072;2022-09-09T04:06:37;22.80;99.90
44573;DHT22;31762;45.420;10.072;2022-09-09T04:11:39;22.70;99.90
44573;DHT22;31762;45.420;10.072;2022-09-09T04:16:41;22.60;99.90
44573;DHT22;31762;45.420;10.072;2022-09-09T04:21:42;22.50;99.90
44573;DHT22;31762;45.420;10.072;2022-09-09T04:26:44;22.70;99.90
44573;DHT22;31762;45.420;10.072;2022-09-09T04:31:46;22.70;99.90
44573;DHT22;31762;45.420;10.072;2022-09-09T04:36:48;22.70;99.90
44573;DHT22;31762;45.420;10.072;2022-09-09T04:41:49;22.50;99.90
44573;DHT22;31762;45.420;10.072;2022-09-09T04:46:51;22.60;99.90
44573;DHT22;31762;45.420;10.072;2022-09-09T04:51:53;22.70;99.90
44573;DHT22;31762;45.420;10.072;2022-09-09T04:56:55;22.60;99.90
44573;DHT22;31762;45.420;10.072;2022-09-09T05:01:56;22.50;99.90
44573;DHT22;31762;45.420;10.072;2022-09-09T05:06:59;22.50;99.90
44573;DHT22;31762;45.420;10.072;2022-09-09T05:12:00;22.40;99.90
44573;DHT22;31762;45.420;10.072;2022-09-09T05:17:03;22.60;99.90
44573;DHT22;31762;45.420;10.072;2022-09-09T05:22:04;22.20;99.90
44573;DHT22;31762;45.420;10.072;2022-09-09T05:27:06;22.30;99.90
44573;DHT22;31762;45.420;10.072;2022-09-09T05:32:08;22.30;99.90
44573;DHT22;31762;45.420;10.072;2022-09-09T05:37:15;22.50;99.90
44573;DHT22;31762;45.420;10.072;2022-09-09T05:42:17;22.60;99.90
44573;DHT22;31762;45.420;10.072;2022-09-09T05:47:19;22.70;99.90
44573;DHT22;31762;45.420;10.072;2022-09-09T05:52:21;22.80;99.90
44573;DHT22;31762;45.420;10.072;2022-09-09T05:57:22;23.10;99.90
44573;DHT22;31762;45.420;10.072;2022-09-09T06:02:24;23.40;99.90
44573;DHT22;31762;45.420;10.072;2022-09-09T06:07:26;23.60;99.90
44573;DHT22;31762;45.420;10.072;2022-09-09T06:12:27;23.70;99.90
44573;DHT22;31762;45.420;10.072;2022-09-09T06:17:29;23.90;99.90
44573;DHT22;31762;45.420;10.072;2022-09-09T06:22:31;24.00;99.90
44573;DHT22;31762;45.420;10.072;2022-09-09T06:27:33;24.10;99.90
44573;DHT22;31762;45.420;10.072;2022-09-09T06:32:34;23.80;99.90
44573;DHT22;31762;45.420;10.072;2022-09-09T06:37:36;24.00;99.90
44573;DHT22;31762;45.420;10.072;2022-09-09T06:42:38;23.90;99.90
44573;DHT22;31762;45.420;10.072;2022-09-09T06:47:39;24.00;99.90
44573;DHT22;31762;45.420;10.072;2022-09-09T06:52:41;24.10;99.90
44573;DHT22;31762;45.420;10.072;2022-09-09T06:57:43;24.10;99.90
44573;DHT22;31762;45.420;10.072;2022-09-09T07:02:45;23.80;99.90
44573;DHT22;31762;45.420;10.072;2022-09-09T07:07:47;23.60;99.90
44573;DHT22;31762;45.420;10.072;2022-09-09T07:12:52;23.30;99.90
44573;DHT22;31762;45.420;10.072;2022-09-09T07:17:53;23.10;99.90
44573;DHT22;31762;45.420;10.072;2022-09-09T07:22:55;23.20;99.90
44573;DHT22;31762;45.420;10.072;2022-09-09T07:27:57;23.70;99.90
44573;DHT22;31762;45.420;10.072;2022-09-09T07:32:58;23.00;99.90
44573;DHT22;31762;45.420;10.072;2022-09-09T07:38:01;22.90;99.90
44573;DHT22;31762;45.420;10.072;2022-09-09T07:43:02;22.40;99.90
44573;DHT22;31762;45.420;10.072;2022-09-09T07:48:05;21.90;99.90
44573;DHT22;31762;45.420;10.072;2022-09-09T07:53:07;21.40;99.90
44573;DHT22;31762;45.420;10.072;2022-09-09T07:58:09;20.70;99.90
44573;DHT22;31762;45.420;10.072;2022-09-09T08:03:10;20.60;99.90
44573;DHT22;31762;45.420;10.072;2022-09-09T08:08:12;20.40;99.90
44573;DHT22;31762;45.420;10.072;2022-09-09T08:13:14;20.40;99.90
44573;DHT22;31762;45.420;10.072;2022-09-09T08:18:19;19.80;99.90
44573;DHT22;31762;45.420;10.072;2022-09-09T08:23:21;19.60;99.90
44573;DHT22;31762;45.420;10.072;2022-09-09T08:28:22;20.00;99.90
44573;DHT22;31762;45.420;10.072;2022-09-09T08:33:24;19.90;99.90
44573;DHT22;31762;45.420;10.072;2022-09-09T08:38:26;19.90;99.90
44573;DHT22;31762;45.420;10.072;2022-09-09T08:43:29;20.40;99.90
44573;DHT22;31762;45.420;10.072;2022-09-09T08:53:59;21.10;99.90
44573;DHT22;31762;45.420;10.072;2022-09-09T08:59:02;21.80;99.90
44573;DHT22;31762;45.420;10.072;2022-09-09T09:09:23;21.40;99.90
44573;DHT22;31762;45.420;10.072;2022-09-09T09:14:30;21.90;99.90
44573;DHT22;31762;45.420;10.072;2022-09-09T09:19:34;21.80;99.90
44573;DHT22;31762;45.420;10.072;2022-09-09T09:24:42;21.40;99.90
44573;DHT22;31762;45.420;10.072;2022-09-09T09:29:48;21.00;99.90
44573;DHT22;31762;45.420;10.072;2022-09-09T09:35:12;21.10;99.90
44573;DHT22;31762;45.420;10.072;2022-09-09T09:40:17;20.90;99.90
44573;DHT22;31762;45.420;10.072;2022-09-09T09:45:41;21.40;99.90
44573;DHT22;31762;45.420;10.072;2022-09-09T09:50:56;21.40;99.90
44573;DHT22;31762;45.420;10.072;2022-09-09T09:56:02;21.40;99.90
44573;DHT22;31762;45.420;10.072;2022-09-09T10:01:04;21.60;99.90
44573;DHT22;31762;45.420;10.072;2022-09-09T10:06:06;22.70;99.90
44573;DHT22;31762;45.420;10.072;2022-09-09T10:11:39;23.00;99.90
44573;DHT22;31762;45.420;10.072;2022-09-09T10:22:25;24.60;99.90
44573;DHT22;31762;45.420;10.072;2022-09-09T10:28:09;24.30;99.90
44573;DHT22;31762;45.420;10.072;2022-09-09T10:33:22;23.80;99.90
44573;DHT22;31762;45.420;10.072;2022-09-09T10:54:56;27.10;99.90
44573;DHT22;31762;45.420;10.072;2022-09-09T11:00:06;27.10;99.90
44573;DHT22;31762;45.420;10.072;2022-09-09T11:11:02;27.40;99.90
44573;DHT22;31762;45.420;10.072;2022-09-09T11:16:19;28.20;99.90
44573;DHT22;31762;45.420;10.072;2022-09-09T11:21:27;28.60;99.90
44573;DHT22;31762;45.420;10.072;2022-09-09T11:26:37;27.70;99.90
44573;DHT22;31762;45.420;10.072;2022-09-09T11:41:46;29.00;99.90
44573;DHT22;31762;45.420;10.072;2022-09-09T11:46:50;28.80;99.90
44573;DHT22;31762;45.420;10.072;2022-09-09T11:51:52;29.20;99.90
44573;DHT22;31762;45.420;10.072;2022-09-09T11:56:54;29.80;99.90
44573;DHT22;31762;45.420;10.072;2022-09-09T12:02:14;29.10;99.90
44573;DHT22;31762;45.420;10.072;2022-09-09T12:12:36;29.60;99.90
44573;DHT22;31762;45.420;10.072;2022-09-09T12:17:49;30.60;99.90
44573;DHT22;31762;45.420;10.072;2022-09-09T12:28:17;30.30;99.90
44573;DHT22;31762;45.420;10.072;2022-09-09T12:33:19;30.70;99.90
44573;DHT22;31762;45.420;10.072;2022-09-09T12:38:47;29.70;99.90
44573;DHT22;31762;45.420;10.072;2022-09-09T12:43:49;30.20;99.90
44573;DHT22;31762;45.420;10.072;2022-09-09T12:48:51;29.60;99.90
44573;DHT22;31762;45.420;10.072;2022-09-09T12:53:55;30.20;99.90
44573;DHT22;31762;45.420;10.072;2022-09-09T12:58:58;29.80;99.90
44573;DHT22;31762;45.420;10.072;2022-09-09T13:04:00;29.40;99.90
44573;DHT22;31762;45.420;10.072;2022-09-09T13:09:02;29.80;99.90
44573;DHT22;31762;45.420;10.072;2022-09-09T13:14:04;30.30;99.90
44573;DHT22;31762;45.420;10.072;2022-09-09T13:19:16;31.20;99.90
44573;DHT22;31762;45.420;10.072;2022-09-09T13:24:29;31.30;99.90
44573;DHT22;31762;45.420;10.072;2022-09-09T13:29:32;31.10;99.90
44573;DHT22;31762;45.420;10.072;2022-09-09T13:34:35;30.70;99.90
44573;DHT22;31762;45.420;10.072;2022-09-09T13:39:37;30.80;99.90
44573;DHT22;31762;45.420;10.072;2022-09-09T13:44:40;30.70;99.90
44573;DHT22;31762;45.420;10.072;2022-09-09T13:49:42;30.50;99.90
44573;DHT22;31762;45.420;10.072;2022-09-09T13:54:48;30.60;99.90
44573;DHT22;31762;45.420;10.072;2022-09-09T13:59:50;30.90;99.90
44573;DHT22;31762;45.420;10.072;2022-09-09T14:05:06;31.70;99.90
44573;DHT22;31762;45.420;10.072;2022-09-09T14:10:08;31.90;99.90
44573;DHT22;31762;45.420;10.072;2022-09-09T14:15:12;31.40;99.90
44573;DHT22;31762;45.420;10.072;2022-09-09T14:20:14;30.80;99.90
44573;DHT22;31762;45.420;10.072;2022-09-09T14:25:16;30.20;99.90
44573;DHT22;31762;45.420;10.072;2022-09-09T14:30:18;29.70;99.90
44573;DHT22;31762;45.420;10.072;2022-09-09T14:35:19;30.60;99.90
44573;DHT22;31762;45.420;10.072;2022-09-09T14:40:21;30.70;99.90
44573;DHT22;31762;45.420;10.072;2022-09-09T14:45:23;30.20;99.90
44573;DHT22;31762;45.420;10.072;2022-09-09T14:50:25;29.40;99.90
44573;DHT22;31762;45.420;10.072;2022-09-09T14:55:27;29.60;99.90
44573;DHT22;31762;45.420;10.072;2022-09-09T15:00:28;30.40;99.90
44573;DHT22;31762;45.420;10.072;2022-09-09T15:05:30;29.60;99.90
44573;DHT22;31762;45.420;10.072;2022-09-09T15:10:32;29.20;99.90
44573;DHT22;31762;45.420;10.072;2022-09-09T15:15:34;28.80;99.90
44573;DHT22;31762;45.420;10.072;2022-09-09T15:20:36;28.60;99.90
44573;DHT22;31762;45.420;10.072;2022-09-09T15:25:53;28.30;99.90
44573;DHT22;31762;45.420;10.072;2022-09-09T15:30:55;28.50;99.90
44573;DHT22;31762;45.420;10.072;2022-09-09T15:35:57;28.30;99.90
44573;DHT22;31762;45.420;10.072;2022-09-09T15:40:59;28.40;99.90
44573;DHT22;31762;45.420;10.072;2022-09-09T15:51:18;28.10;99.90
44573;DHT22;31762;45.420;10.072;2022-09-09T15:56:39;27.90;99.90
44573;DHT22;31762;45.420;10.072;2022-09-09T16:01:43;27.80;99.90
44573;DHT22;31762;45.420;10.072;2022-09-09T16:06:45;27.70;99.90
44573;DHT22;31762;45.420;10.072;2022-09-09T16:11:47;27.70;99.90
44573;DHT22;31762;45.420;10.072;2022-09-09T16:16:49;27.70;99.90
44573;DHT22;31762;45.420;10.072;2022-09-09T16:21:51;27.70;99.90
44573;DHT22;31762;45.420;10.072;2022-09-09T16:26:53;27.70;99.90
44573;DHT22;31762;45.420;10.072;2022-09-09T16:31:55;27.70;99.90
44573;DHT22;31762;45.420;10.072;2022-09-09T16:37:04;27.40;99.90
44573;DHT22;31762;45.420;10.072;2022-09-09T16:42:05;27.30;99.90
44573;DHT22;31762;45.420;10.072;2022-09-09T16:47:07;27.50;99.90
44573;DHT22;31762;45.420;10.072;2022-09-09T16:52:09;27.60;99.90
44573;DHT22;31762;45.420;10.072;2022-09-09T16:57:10;27.50;99.90
44573;DHT22;31762;45.420;10.072;2022-09-09T17:02:12;27.60;99.90
44573;DHT22;31762;45.420;10.072;2022-09-09T17:07:14;27.90;99.90
44573;DHT22;31762;45.420;10.072;2022-09-09T17:12:16;27.50;99.90
44573;DHT22;31762;45.420;10.072;2022-09-09T17:17:17;27.10;99.90
44573;DHT22;31762;45.420;10.072;2022-09-09T17:22:32;26.80;99.90
44573;DHT22;31762;45.420;10.072;2022-09-09T17:27:34;26.70;99.90
44573;DHT22;31762;45.420;10.072;2022-09-09T17:32:35;26.50;99.90
44573;DHT22;31762;45.420;10.072;2022-09-09T17:37:37;26.30;99.90
44573;DHT22;31762;45.420;10.072;2022-09-09T17:42:39;26.20;99.90
44573;DHT22;31762;45.420;10.072;2022-09-09T17:47:41;26.00;99.90
44573;DHT22;31762;45.420;10.072;2022-09-09T17:52:42;25.90;99.90
44573;DHT22;31762;45.420;10.072;2022-09-09T17:57:44;25.70;99.90
44573;DHT22;31762;45.420;10.072;2022-09-09T18:02:46;26.00;99.90
44573;DHT22;31762;45.420;10.072;2022-09-09T18:07:48;25.70;99.90
44573;DHT22;31762;45.420;10.072;2022-09-09T18:12:50;25.70;99.90
44573;DHT22;31762;45.420;10.072;2022-09-09T18:17:51;25.30;99.90
44573;DHT22;31762;45.420;10.072;2022-09-09T18:22:53;25.40;99.90
44573;DHT22;31762;45.420;10.072;2022-09-09T18:27:56;25.30;99.90
44573;DHT22;31762;45.420;10.072;2022-09-09T18:32:58;25.00;99.90
44573;DHT22;31762;45.420;10.072;2022-09-09T18:38:00;25.00;99.90
44573;DHT22;31762;45.420;10.072;2022-09-09T18:43:02;25.00;99.90
44573;DHT22;31762;45.420;10.072;2022-09-09T18:48:03;24.90;99.90
44573;DHT22;31762;45.420;10.072;2022-09-09T18:53:05;24.90;99.90
44573;DHT22;31762;45.420;10.072;2022-09-09T18:58:07;25.20;99.90
44573;DHT22;31762;45.420;10.072;2022-09-09T19:03:09;25.20;99.90
44573;DHT22;31762;45.420;10.072;2022-09-09T19:08:10;25.10;99.90
44573;DHT22;31762;45.420;10.072;2022-09-09T19:13:13;25.10;99.90
44573;DHT22;31762;45.420;10.072;2022-09-09T19:18:14;24.90;99.90
44573;DHT22;31762;45.420;10.072;2022-09-09T19:23:16;25.10;99.90
44573;DHT22;31762;45.420;10.072;2022-09-09T19:28:18;24.80;99.90
44573;DHT22;31762;45.420;10.072;2022-09-09T19:33:19;24.50;99.90
44573;DHT22;31762;45.420;10.072;2022-09-09T19:38:21;24.60;99.90
44573;DHT22;31762;45.420;10.072;2022-09-09T19:43:23;24.50;99.90
44573;DHT22;31762;45.420;10.072;2022-09-09T19:48:25;24.60;99.90
44573;DHT22;31762;45.420;10.072;2022-09-09T19:53:27;24.70;99.90
44573;DHT22;31762;45.420;10.072;2022-09-09T19:58:30;24.50;99.90
44573;DHT22;31762;45.420;10.072;2022-09-09T20:03:33;24.30;99.90
44573;DHT22;31762;45.420;10.072;2022-09-09T20:08:36;24.30;99.90
44573;DHT22;31762;45.420;10.072;2022-09-09T20:13:39;23.90;99.90
44573;DHT22;31762;45.420;10.072;2022-09-09T20:18:44;23.90;99.90
44573;DHT22;31762;45.420;10.072;2022-09-09T20:23:47;24.30;99.90
44573;DHT22;31762;45.420;10.072;2022-09-09T20:28:50;24.30;99.90
44573;DHT22;31762;45.420;10.072;2022-09-09T20:33:53;24.60;99.90
44573;DHT22;31762;45.420;10.072;2022-09-09T20:39:00;24.20;99.90
44573;DHT22;31762;45.420;10.072;2022-09-09T20:44:08;24.40;99.90
44573;DHT22;31762;45.420;10.072;2022-09-09T20:49:10;24.30;99.90
44573;DHT22;31762;45.420;10.072;2022-09-09T20:54:15;24.20;99.90
44573;DHT22;31762;45.420;10.072;2022-09-09T20:59:20;24.20;99.90
44573;DHT22;31762;45.420;10.072;2022-09-09T21:04:22;24.20;99.90
44573;DHT22;31762;45.420;10.072;2022-09-09T21:09:24;24.20;99.90
44573;DHT22;31762;45.420;10.072;2022-09-09T21:14:25;24.20;99.90
44573;DHT22;31762;45.420;10.072;2022-09-09T21:19:27;24.10;99.90
44573;DHT22;31762;45.420;10.072;2022-09-09T21:24:29;24.10;99.90
44573;DHT22;31762;45.420;10.072;2022-09-09T21:29:31;24.20;99.90
44573;DHT22;31762;45.420;10.072;2022-09-09T21:34:33;24.10;99.90
44573;DHT22;31762;45.420;10.072;2022-09-09T21:39:35;24.10;99.90
44573;DHT22;31762;45.420;10.072;2022-09-09T21:44:37;23.90;99.90
44573;DHT22;31762;45.420;10.072;2022-09-09T21:49:38;23.80;99.90
44573;DHT22;31762;45.420;10.072;2022-09-09T21:54:40;23.60;99.90
44573;DHT22;31762;45.420;10.072;2022-09-09T21:59:42;23.60;99.90
44573;DHT22;31762;45.420;10.072;2022-09-09T22:04:43;23.70;99.90
44573;DHT22;31762;45.420;10.072;2022-09-09T22:09:45;23.90;99.90
44573;DHT22;31762;45.420;10.072;2022-09-09T22:14:47;23.80;99.90
44573;DHT22;31762;45.420;10.072;2022-09-09T22:19:50;23.70;99.90
44573;DHT22;31762;45.420;10.072;2022-09-09T22:24:52;23.60;99.90
44573;DHT22;31762;45.420;10.072;2022-09-09T22:29:53;23.60;99.90
44573;DHT22;31762;45.420;10.072;2022-09-09T22:34:55;23.60;99.90
44573;DHT22;31762;45.420;10.072;2022-09-09T22:39:57;23.30;99.90
44573;DHT22;31762;45.420;10.072;2022-09-09T22:44:58;23.20;99.90
44573;DHT22;31762;45.420;10.072;2022-09-09T22:50:00;23.30;99.90
44573;DHT22;31762;45.420;10.072;2022-09-09T22:55:02;23.40;99.90
44573;DHT22;31762;45.420;10.072;2022-09-09T23:00:04;23.40;99.90
44573;DHT22;31762;45.420;10.072;2022-09-09T23:05:06;23.00;99.90
44573;DHT22;31762;45.420;10.072;2022-09-09T23:10:09;23.40;99.90
44573;DHT22;31762;45.420;10.072;2022-09-09T23:15:10;23.50;99.90
44573;DHT22;31762;45.420;10.072;2022-09-09T23:20:12;23.40;99.90
44573;DHT22;31762;45.420;10.072;2022-09-09T23:25:14;23.50;99.90
44573;DHT22;31762;45.420;10.072;2022-09-09T23:30:16;23.20;99.90
44573;DHT22;31762;45.420;10.072;2022-09-09T23:35:17;22.30;99.90
44573;DHT22;31762;45.420;10.072;2022-09-09T23:40:19;20.40;99.90
44573;DHT22;31762;45.420;10.072;2022-09-09T23:45:21;17.60;99.90
44573;DHT22;31762;45.420;10.072;2022-09-09T23:50:22;17.10;99.90
44573;DHT22;31762;45.420;10.072;2022-09-09T23:55:24;16.70;99.90
